Narrabarba, Australia

9:38 PM AEST on September 25, 2017 (GMT +1000)
Eden | | Change Station

Elev 206 ft 37.06 °S, 149.90 °E | Updated 33 seconds ago

Partly Cloudy
Partly Cloudy
49.5 °F
Feels Like 50 °F
N
0.0
Wind Variable Wind from WSW

Today
High -- | Low -- °F
--% Chance of Precip.
Yesterday
High -- | Low -- °F
Precip. -- in
Pressure 29.86 in
Visibility 6.2 miles
Clouds Scattered Clouds 6000 ft
Scattered Clouds 6900 ft
Overcast 8000 ft
Windchill 50 °F
Dew Point 47 °F
Humidity 92%
Rainfall 0.68 in
Snow Depth Not available.
5:46 AM 5:59 PM
Waxing Crescent, 26% visible
METAR YMER 251100Z AUTO 21004KT 9999 // SCT060 SCT069 OVC080 10/09 Q1011
Pressure 29.86 in
Visibility 6.2 miles
Clouds Scattered Clouds 6000 ft
Scattered Clouds 6900 ft
Overcast 8000 ft
Windchill 50 °F
Dew Point 47 °F
Humidity 92%
Rainfall 0.68 in
Snow Depth Not available.
5:46 AM 5:59 PM
Waxing Crescent, 26% visible
METAR YMER 251100Z AUTO 21004KT 9999 // SCT060 SCT069 OVC080 10/09 Q1011

Get Severe Weather Alerts

Thanks for signing up!

Be on the lookout for a verification email in your inbox.

You'll start receiving the daily forecast at 6 AM.

×

10-Day Weather Forecast

×

Almanac

Astronomy

Sep. 25, 2017 Rise Set
Actual Time
Civil Twilight
Nautical Twilight
Astronomical Twilight
Moon
Length of Visible Light
Length of Day
Tomorrow will be .
, % of the Moon is Illuminated

Today's Extremes

Country Highs Country Lows

Community

WunderPhotos

Category 6

Welcome to Category 6. This is the collective home for Weather Underground's featured writeups by Dr. Jeff Masters (right), Bob Henson (left), Chris Burt, and other regular contributors.

Nearby

Air Quality

  Air Quality AQ Index Pollutant
Not available.

Snow Depth

Station Depth Elevation

Earthquake Activity

City Distance Mag. Time & Date
Minimum magnitude displayed is 2.5.

Coastal Water Temperatures

Place Temperature

Stations

Nearby Weather Stations

Station Location Temp. Windchill Dew Point Humidity Wind Precip. Elev Updated Type